首页
METAR-TAF:

METAR-TAF

机场 :

巴哈瓦尔布尔, 巴基斯坦

纬度: 29-20-53N, 经度: 71-43-04E, 海拔: 119米

METAR: 丢失

时间: 21:12 (16:12 UTC)

预报

该预报发布于6小时和27分钟前的09:45 UTC
预报有效从08日的 12点(UTC)到 09日的 06点(UTC)
风速5节,风向东北
能見度: 4000
散云层高于12000英尺
几率 30% :
短暂存在
从 09日的 00点(UTC)到 09日的 04点(UTC)
风速8节,风向西南
能見度: 2500
散云层高于4000英尺
散云层高于12000英尺

TAF: OPBW 080945Z 0812/0906 05005KT 4000 FU SCT120 TN17/0901Z PROB30 TEMPO 0900/0904 23008KT 2500 FU SCT040 SCT120

超过4000个机场的气象观测和天气预报(METAR&TAF报告)。

可查询的气象台以黄色和红色小点在地图上表示。

将鼠标移到小点上方,可查看气象台名称。

然后点击查看天气观测和预报。

如需切换地图:点击带黑十字的绿色按钮放大地图;点击带横线的绿色按钮缩小地图;或者点击绿色箭头查看邻近地区的地图。


METAR-TAF: